Flight Track Log - Related Links

Times and Time Zones

All times are in EDT time to prevent confusion due to time zone crossing. See the KAP720 flight status page for this flight to view local times or setup timezone preferences in your user account.

Time Position Orientation Groundspeed Altitude Reporting Facility
EDT Latitude Longitude Course Direction KTS MPH feet Rate Location/Type
Tue 01:07:27 PM 42.3833 -71.0167 360° North 138 159 500  Level KA90
Tue 01:07:54 PM 42.4000 -71.0167 360° North 128 147 1,000 897 Climbing KA90
Tue 01:08:54 PM 42.4000 -71.0667 270° West 126 145 1,800 700 Climbing KA90
Tue 01:09:54 PM 42.4000 -71.1167 270° West 116 133 2,400 550 Climbing KA90
Tue 01:10:54 PM 42.3833 -71.1500 236° Southwest 119 137 2,900 564 Climbing KA90
Tue 01:11:51 PM 42.3667 -71.2000 246° West 118 136 3,500 550 Climbing KA90
Tue 01:12:54 PM 42.3667 -71.2333 270° West 115 132 4,000 585 Climbing KA90
Tue 01:13:54 PM 42.3500 -71.2833 246° West 116 133 4,700 700 Climbing KA90
Tue 01:14:54 PM 42.3500 -71.3167 270° West 117 135 5,400 500 Climbing KA90
Tue 01:15:54 PM 42.3333 -71.3667 246° West 120 138 5,700 447 Climbing KA90
Tue 01:16:28 PM 42.3269 -71.4011 256° West 125 144 6,100 535 Climbing Boston Center
Tue 01:17:35 PM 42.3189 -71.4544 258° West 124 143 6,600 469 Climbing Boston Center
Tue 01:18:36 PM 42.3111 -71.5025 258° West 132 152 7,100 545 Climbing Boston Center
Tue 01:19:36 PM 42.3053 -71.5503 261° West 128 147 7,700 496 Climbing Boston Center
Tue 01:20:37 PM 42.3014 -71.6008 264° West 132 152 8,100 197 Climbing Boston Center
Tue 01:21:38 PM 42.2914 -71.6542 256° West 153 176 8,100  Level Boston Center
Tue 01:22:38 PM 42.2792 -71.7133 254° West 154 177 8,100  Level Boston Center
Tue 01:23:39 PM 42.2692 -71.7694 256° West 155 178 8,100  Level Boston Center
Tue 01:24:40 PM 42.2633 -71.8314 263° West 158 182 8,100  Level Boston Center
Tue 01:25:40 PM 42.2656 -71.8903 273° West 160 184 8,100 -50 Level Boston Center
Tue 01:26:41 PM 42.2700 -71.9519 276° West 161 185 8,000  Descending Boston Center
Tue 01:27:48 PM 42.2683 -72.0164 268° West 160 184 8,100 50 Climbing Boston Center
Tue 01:28:42 PM 42.2728 -72.0725 276° West 161 185 8,100 -50 Level Boston Center
Tue 01:29:49 PM 42.2708 -72.1397 268° West 162 186 8,000 -47 Descending Boston Center
Tue 01:30:50 PM 42.2731 -72.1989 273° West 162 186 8,000 49 Level Boston Center
Tue 01:31:51 PM 42.2731 -72.2606 270° West 162 186 8,100  Climbing Boston Center
Tue 01:32:46 PM 42.2753 -72.3194 273° West 164 189 8,000 -50 Descending Boston Center
Tue 01:33:52 PM 42.2775 -72.3839 273° West 165 190 8,000  Level Boston Center
Tue 01:34:47 PM 42.2817 -72.4400 276° West 165 190 8,000  Level Boston Center
Tue 01:35:48 PM 42.3003 -72.4961 294° West 166 191 8,000  Level Boston Center
Tue 01:36:49 PM 42.3233 -72.5553 298° West 165 190 8,000  Level Boston Center
Tue 01:37:56 PM 42.3419 -72.6169 292° West 163 188 8,000  Level Boston Center
Tue 01:38:56 PM 42.3647 -72.6706 300° West 163 188 8,000  Level Boston Center
Tue 01:39:51 PM 42.3814 -72.7211 294° West 163 188 8,000  Level Boston Center
Tue 01:40:57 PM 42.4019 -72.7858 293° West 162 186 8,000  Level Boston Center
Tue 01:41:52 PM 42.4206 -72.8367 296° West 163 188 8,000 52 Level Boston Center
Tue 01:42:53 PM 42.4392 -72.8931 294° West 163 188 8,100 50 Climbing Boston Center
Tue 01:43:53 PM 42.4556 -72.9408 295° West 158 182 8,100  Level Boston Center
Tue 01:44:54 PM 42.4761 -73.0031 294° West 165 190 8,100  Level Boston Center
Tue 01:45:55 PM 42.4967 -73.0539 299° West 162 186 8,100  Level Boston Center
Tue 01:46:43 PM 42.5111 -73.1019 292° West 160 184 8,100 -165 Level Boston Center
Tue 01:47:44 PM 42.5314 -73.1586 296° West 165 190 7,800 -393 Descending Boston Center
Tue 01:48:45 PM 42.5539 -73.2236 295° West 193 222 7,300 -541 Descending Boston Center
Tue 01:49:46 PM 42.5619 -73.2914 279° West 193 222 6,700 -639 Descending Boston Center
Tue 01:50:47 PM 42.5614 -73.3619 269° West 184 212 6,000 -661 Descending Boston Center
Tue 01:51:53 PM 42.5586 -73.4378 267° West 179 206 5,300 -520 Descending Boston Center
Tue 01:52:54 PM 42.5600 -73.5083 272° West 182 209 4,900 -98 Descending Boston Center
Tue 01:53:55 PM 42.5594 -73.5703 269° West 163 188 5,100 -49 Climbing Boston Center
Tue 01:54:56 PM 42.5547 -73.6294 264° West 154 177 4,800 -541 Descending Boston Center
Tue 01:55:57 PM 42.5561 -73.6944 272° West 176 203 4,000 -744 Descending Boston Center
Tue 01:56:57 PM 42.5553 -73.7592 269° West 179 206 3,300 -694 Descending Boston Center
Tue 01:57:58 PM 42.5839 -73.8019 312° West 182 209 2,600 -609 Descending Boston Center
Tue 01:59:05 PM 42.6403 -73.8006 North 169 194 2,000 -472 Descending Boston Center
Tue 02:00:05 PM 42.6778 -73.8042 356° North 139 160 1,600 -545 Descending Boston Center
Tue 02:01:06 PM 42.7153 -73.8050 359° North 126 145 900 -689 Descending Boston Center

Login

Don't have an account? Register now (free) for customized features, flight alerts, and more!